Pagrindinis puslapis
METAR-TAF:

METAR-TAF

Oro uostai :

Majamis, Florida, Jungtinės Amerikos Valstijos

platuma: 25-47-26N, ilguma: 080-18-59W, Aukštis: 3 m

Dabartinis oras

Ataskaita buvo paskelbta 1 valandą ir 1 minutes, ne 03:53 UTC
Vėjas 6 kt iš Vakarų/Šiaurės Vakarų
Temperatūra 15°C
Drėgmė 59%
Slėgis 1025 hPa
Matomumas: 16.1 km
Giedras dangus

METAR: KMIA 290353Z 30006KT 10SM CLR 15/07 A3027 RMK AO2 SLP250 T01500067

Laikas: 23:54 (04:54 UTC)

Prognozė

Ataskaita buvo paskelbta 1 valandą ir 50 minutes, ne 03:04 UTC
Prognozė galioja nuo 29 metu 03 UTC su 01 metu 06 UTC
Vėjas 3 kt nuo kintamojo kryptimis
Matomumas: 10 km
Giedras dangus
Nuo 29 metu 1300 UTC
Vėjas 12 kt iš Šiaurės/Šiaurės Vakarų
Matomumas: 10 km
Mažai debesys ne aukštis 4500 ft
Nuo 01 metu 0200 UTC
Vėjas 6 kt iš Šiaurės
Matomumas: 10 km
Giedras dangus

TAF: KMIA 290304Z 2903/0106 VRB03KT P6SM SKC FM291300 33012KT P6SM FEW045 FM010200 35006KT P6SM SKC

Orai ataskaitas ir orų prognozės (METAR, TAF).

turimą stotys yra geltonos ir raudonos taškus žemėlapyje.

Perkelti pele per norėdami pamatyti stoties vardą.

Tada spustelėkite, norėdami matyti oro stebėjimo ir prognozės.

Norėdami pakeisti žemėlapį: spustelėkite ant žalios mygtukų su juodo kryžiaus žemyn,; žalią mygtuką su brūkšneliu, jei norite nutolinti; arba žalių rodyklių gretimoms žemėlapius.


METAR-TAF: